createdAt,value
2023-09-12T00:00:01.356Z,21.08
2023-09-12T00:05:04.151Z,21.47
2023-09-12T00:10:07.091Z,21.34
2023-09-12T00:15:10.116Z,21.71
2023-09-12T00:20:12.527Z,21.18
2023-09-12T00:25:14.846Z,21.27
2023-09-12T00:30:17.319Z,20.68
2023-09-12T00:35:19.631Z,20.75
2023-09-12T00:40:21.951Z,21.25
2023-09-12T00:45:24.303Z,21.41
2023-09-12T00:50:27.808Z,20.69
2023-09-12T00:55:33.763Z,21.03
2023-09-12T01:00:36.273Z,21.11
2023-09-12T01:05:39.208Z,21.67
2023-09-12T01:10:47.163Z,21.81
2023-09-12T01:15:49.382Z,21.67
2023-09-12T01:21:30.050Z,21.54
2023-09-12T01:27:22.987Z,21.99
2023-09-12T01:32:25.443Z,21.87
2023-09-12T01:37:28.234Z,21.87
2023-09-12T01:42:38.636Z,21.55
2023-09-12T01:47:43.061Z,21.97
2023-09-12T01:52:46.344Z,21.69
2023-09-12T01:57:48.926Z,22.13
2023-09-12T02:02:51.934Z,21.11
2023-09-12T02:07:54.263Z,21.87
2023-09-12T02:12:56.610Z,21.73
2023-09-12T02:17:58.824Z,21.93
2023-09-12T02:23:01.036Z,21.52
2023-09-12T02:28:03.521Z,21.88
2023-09-12T02:33:06.019Z,22.11
2023-09-12T02:38:09.222Z,21.78
2023-09-12T02:43:11.581Z,20.64
2023-09-12T02:48:13.918Z,20.95
2023-09-12T02:53:16.193Z,21.47
2023-09-12T02:58:18.549Z,21.04
2023-09-12T03:03:21.190Z,21.65
2023-09-12T03:08:23.622Z,21.44
2023-09-12T03:13:27.410Z,21.35
2023-09-12T03:18:30.172Z,21.46
2023-09-12T03:23:33.255Z,20.89
2023-09-12T03:28:36.238Z,21.81
2023-09-12T03:33:39.742Z,21.25
2023-09-12T03:38:42.255Z,21.44
2023-09-12T03:43:44.811Z,20.95
2023-09-12T03:48:47.440Z,20.90
2023-09-12T03:53:51.192Z,21.67
2023-09-12T03:58:55.073Z,20.75
2023-09-12T04:03:58.992Z,21.11
2023-09-12T04:09:02.755Z,21.38
2023-09-12T04:14:05.089Z,21.01
2023-09-12T04:19:07.695Z,21.42
2023-09-12T04:24:10.427Z,20.79
2023-09-12T04:29:12.897Z,20.75
2023-09-12T04:34:15.291Z,20.45
2023-09-12T04:39:17.598Z,20.74
2023-09-12T04:44:20.098Z,20.32
2023-09-12T04:49:22.897Z,20.24
2023-09-12T04:54:25.238Z,20.82
2023-09-12T04:59:27.580Z,20.43
2023-09-12T05:04:30.004Z,20.63
2023-09-12T05:09:32.502Z,20.75
2023-09-12T05:14:35.037Z,20.68
2023-09-12T05:19:37.438Z,20.81
2023-09-12T05:24:39.753Z,20.46
2023-09-12T05:29:42.140Z,20.52
2023-09-12T05:34:46.302Z,20.80
2023-09-12T05:39:48.952Z,20.62
2023-09-12T05:44:54.528Z,21.14
2023-09-12T05:49:57.674Z,20.68
2023-09-12T05:54:59.999Z,22.49
2023-09-12T06:00:04.892Z,23.52
2023-09-12T06:05:14.854Z,24.29
2023-09-12T06:10:17.231Z,24.89
2023-09-12T06:15:19.582Z,26.76
2023-09-12T06:20:23.024Z,26.03
2023-09-12T06:25:26.091Z,25.01
2023-09-12T06:30:28.549Z,25.26
2023-09-12T06:35:30.778Z,24.95
2023-09-12T06:40:33.020Z,25.89
2023-09-12T06:45:37.935Z,26.12
2023-09-12T06:50:40.290Z,25.66
2023-09-12T06:55:42.568Z,24.92
2023-09-12T07:00:45.056Z,25.06
2023-09-12T07:05:47.408Z,24.87
2023-09-12T07:10:49.701Z,24.65
2023-09-12T07:15:52.944Z,25.31
2023-09-12T07:21:05.869Z,25.48
2023-09-12T07:26:17.389Z,26.43
2023-09-12T07:31:19.768Z,26.16
2023-09-12T07:36:22.157Z,26.62
2023-09-12T07:41:24.404Z,27.81
2023-09-12T07:46:26.761Z,28.13
2023-09-12T07:51:29.075Z,28.19
2023-09-12T07:56:31.393Z,27.98
2023-09-12T08:01:33.693Z,28.13
2023-09-12T08:06:47.702Z,28.33
2023-09-12T08:11:54.274Z,28.23
2023-09-12T08:16:56.594Z,27.92
2023-09-12T08:21:58.853Z,29.07
2023-09-12T08:27:01.865Z,29.75
2023-09-12T08:32:04.718Z,29.93
2023-09-12T08:37:07.158Z,30.67
2023-09-12T08:42:15.328Z,30.02
2023-09-12T08:47:21.132Z,30.56
2023-09-12T08:52:23.759Z,30.70
2023-09-12T08:57:26.772Z,30.67
2023-09-12T09:02:29.528Z,30.79
2023-09-12T09:07:40.019Z,31.10
2023-09-12T09:12:44.660Z,31.58
2023-09-12T09:17:48.116Z,31.43
2023-09-12T09:23:16.936Z,30.72
2023-09-12T09:28:21.926Z,30.76
2023-09-12T09:33:25.249Z,31.80
2023-09-12T09:38:27.602Z,31.84
2023-09-12T09:43:33.284Z,31.84
2023-09-12T09:48:37.062Z,31.92
2023-09-12T09:53:42.092Z,32.28
2023-09-12T09:58:51.352Z,32.74
2023-09-12T10:03:54.838Z,31.71
2023-09-12T10:09:00.227Z,31.89
2023-09-12T10:14:05.694Z,32.04
2023-09-12T10:19:20.817Z,33.06
2023-09-12T10:24:24.793Z,32.98
2023-09-12T10:29:27.152Z,32.18
2023-09-12T10:34:31.800Z,32.65
2023-09-12T10:39:35.986Z,33.24
2023-09-12T10:44:38.546Z,33.42
2023-09-12T10:49:41.115Z,33.35
2023-09-12T11:00:05.404Z,33.70
2023-09-12T11:05:29.090Z,33.93
2023-09-12T11:10:33.343Z,34.16
2023-09-12T11:15:36.027Z,34.11
2023-09-12T11:21:04.751Z,33.99
2023-09-12T11:26:09.275Z,34.15
2023-09-12T11:31:12.022Z,34.19
2023-09-12T11:36:16.344Z,34.81
2023-09-12T11:41:41.076Z,34.60
2023-09-12T11:46:44.460Z,34.66
2023-09-12T11:51:56.541Z,34.87
2023-09-12T11:57:00.898Z,34.11
2023-09-12T12:02:09.151Z,34.19
2023-09-12T12:07:12.419Z,34.07
2023-09-12T12:12:16.260Z,34.76
2023-09-12T12:17:18.752Z,34.66
2023-09-12T12:22:21.180Z,34.67
2023-09-12T12:27:24.123Z,35.32
2023-09-12T12:32:26.868Z,35.48
2023-09-12T12:37:32.716Z,34.69
2023-09-12T12:42:50.508Z,34.59
2023-09-12T12:48:01.936Z,34.38
2023-09-12T12:53:04.495Z,34.55
2023-09-12T12:58:06.831Z,34.27
2023-09-12T13:03:09.228Z,34.75
2023-09-12T13:08:11.520Z,35.06
2023-09-12T13:13:13.970Z,34.99
2023-09-12T13:18:16.295Z,35.66
2023-09-12T13:23:18.969Z,35.26
2023-09-12T13:28:21.442Z,35.17
2023-09-12T13:33:23.954Z,35.37
2023-09-12T13:38:26.643Z,35.98
2023-09-12T13:43:29.678Z,35.83
2023-09-12T13:48:32.103Z,35.83
2023-09-12T13:53:34.846Z,35.95
2023-09-12T13:58:42.312Z,36.27
2023-09-12T14:03:51.078Z,35.95
2023-09-12T14:08:55.125Z,36.19
2023-09-12T14:14:12.288Z,35.95
2023-09-12T14:19:17.664Z,35.84
2023-09-12T14:24:21.608Z,36.06
2023-09-12T14:29:25.514Z,35.46
2023-09-12T14:34:29.296Z,35.65
2023-09-12T14:39:31.590Z,35.75
2023-09-12T14:44:34.348Z,35.84
2023-09-12T14:49:46.006Z,35.65
2023-09-12T14:54:50.500Z,35.27
2023-09-12T14:59:53.165Z,35.68
2023-09-12T15:04:55.469Z,35.48
2023-09-12T15:09:58.666Z,35.61
2023-09-12T15:15:01.100Z,35.71
2023-09-12T15:20:06.404Z,35.18
2023-09-12T15:25:09.057Z,35.23
2023-09-12T15:30:12.982Z,34.81
2023-09-12T15:35:15.282Z,35.11
2023-09-12T15:40:17.808Z,35.21
2023-09-12T15:45:21.240Z,34.98
2023-09-12T15:50:24.522Z,34.69
2023-09-12T15:55:26.716Z,34.47
2023-09-12T16:00:29.024Z,33.98
2023-09-12T16:05:31.465Z,33.44
2023-09-12T16:10:33.728Z,33.59
2023-09-12T16:15:36.125Z,34.07
2023-09-12T16:20:38.541Z,33.53
2023-09-12T16:25:40.853Z,31.96
2023-09-12T16:30:45.448Z,31.53
2023-09-12T16:35:48.413Z,31.55
2023-09-12T16:40:51.245Z,31.55
2023-09-12T16:45:53.640Z,31.10
2023-09-12T16:50:55.932Z,30.64
2023-09-12T16:56:00.336Z,30.36
2023-09-12T17:01:02.810Z,30.40
2023-09-12T17:06:05.462Z,30.50
2023-09-12T17:11:07.917Z,30.57
2023-09-12T17:16:10.383Z,30.89
2023-09-12T17:21:12.925Z,30.51
2023-09-12T17:26:15.160Z,30.47
2023-09-12T17:31:17.549Z,29.94
2023-09-12T17:36:19.792Z,29.79
2023-09-12T17:41:22.176Z,30.07
2023-09-12T17:46:25.154Z,29.93
2023-09-12T17:51:27.621Z,29.72
2023-09-12T17:56:29.946Z,29.22
2023-09-12T18:01:32.281Z,29.40
2023-09-12T18:06:36.308Z,29.13
2023-09-12T18:11:38.700Z,28.95
2023-09-12T18:16:41.245Z,28.63
2023-09-12T18:21:43.695Z,28.58
2023-09-12T18:26:47.137Z,28.78
2023-09-12T18:31:49.933Z,28.31
2023-09-12T18:36:54.416Z,28.67
2023-09-12T18:41:56.743Z,28.68
2023-09-12T18:46:59.403Z,28.80
2023-09-12T18:52:01.809Z,28.78
2023-09-12T18:57:12.069Z,28.62
2023-09-12T19:02:15.207Z,28.49
2023-09-12T19:07:17.512Z,28.44
2023-09-12T19:12:19.756Z,28.64
2023-09-12T19:17:22.010Z,28.62
2023-09-12T19:22:24.224Z,28.40
2023-09-12T19:27:26.387Z,28.29
2023-09-12T19:32:29.452Z,28.12
2023-09-12T19:37:31.664Z,28.05
2023-09-12T19:42:34.148Z,27.52
2023-09-12T19:47:50.049Z,27.15
2023-09-12T19:52:57.635Z,27.65
2023-09-12T19:57:59.994Z,27.51
2023-09-12T20:03:02.466Z,27.28
2023-09-12T20:08:08.551Z,27.70
2023-09-12T20:13:10.898Z,27.52
2023-09-12T20:18:15.252Z,27.46
2023-09-12T20:23:17.525Z,27.23
2023-09-12T20:28:19.867Z,27.17
2023-09-12T20:33:22.237Z,26.77
2023-09-12T20:38:24.532Z,27.31
2023-09-12T20:43:27.099Z,26.67
2023-09-12T20:48:29.397Z,27.23
2023-09-12T20:53:31.645Z,27.16
2023-09-12T20:58:33.850Z,27.08
2023-09-12T21:03:36.310Z,26.94
2023-09-12T21:08:38.946Z,26.79
2023-09-12T21:13:41.210Z,26.54
2023-09-12T21:18:45.360Z,25.92
2023-09-12T21:23:47.681Z,25.08
2023-09-12T21:28:53.429Z,25.43
2023-09-12T21:33:56.085Z,25.78
2023-09-12T21:38:58.459Z,25.40
2023-09-12T21:44:00.645Z,25.39
2023-09-12T21:49:05.827Z,25.33
2023-09-12T21:54:09.681Z,25.69
2023-09-12T21:59:11.906Z,25.12
2023-09-12T22:04:14.993Z,25.20
2023-09-12T22:09:17.256Z,25.20
2023-09-12T22:14:19.465Z,24.78
2023-09-12T22:19:21.820Z,24.61
2023-09-12T22:24:24.098Z,24.32
2023-09-12T22:29:26.708Z,24.06
2023-09-12T22:34:29.002Z,24.13
2023-09-12T22:39:31.402Z,23.57
2023-09-12T22:44:33.713Z,23.82
2023-09-12T22:49:36.013Z,23.58
2023-09-12T22:54:38.294Z,23.50
2023-09-12T22:59:40.775Z,23.12
2023-09-12T23:04:43.193Z,23.22
2023-09-12T23:09:45.537Z,23.51
2023-09-12T23:14:48.043Z,23.27
2023-09-12T23:19:50.435Z,23.21
2023-09-12T23:24:53.234Z,23.23
2023-09-12T23:29:56.551Z,22.73
2023-09-12T23:34:58.974Z,23.12
2023-09-12T23:40:01.442Z,23.10
2023-09-12T23:45:04.524Z,22.68
2023-09-12T23:50:07.912Z,22.70
2023-09-12T23:55:11.065Z,22.76
